Overview Statistics Trail Chart Weather Telemetry Raw packets
 

This is the latest recevied weather packets stored in our database for station/object IW8ELN-10. If no packets are shown the sender has not sent any weather packets the latest 10 day(s).

<< 2 3 4 5 6 7 >>
Time Temp. Humidity Pressure Rain* Wind** Luminosity Snow
1788076371 23.89° C 65% 988.2 hPa - - - -
1788072778 23.33° C 67% 988.4 hPa - - - -
1788061971 23.33° C 64% 988.7 hPa - - - -
1788054777 23.89° C 64% 990.4 hPa - - - -
1788051177 23.33° C 66% 990.9 hPa - - - -
1788047576 23.89° C 65% 990.9 hPa - - - -
1788043977 24.44° C 64% 990.8 hPa - - - -
1788040369 24.44° C 64% 990.7 hPa - - - -
1788036770 24.44° C 64% 990.6 hPa - - - -
1788033172 25° C 60% 990.3 hPa - - - -
1788029576 25.56° C 58% 989.8 hPa - - - -
1788025976 26.11° C 56% 989.5 hPa - - - -
1788022369 26.67° C 50% 989.4 hPa - - - -
1788011575 27.22° C 43% 990 hPa - - - -
1788007975 27.22° C 38% 990.2 hPa - - - -
1788004376 25° C 57% 990.5 hPa - - - -
1788000775 24.44° C 60% 990.9 hPa - - - -
1787997168 24.44° C 60% 992.4 hPa - - - -
1787993575 24.44° C 59% 992.4 hPa - - - -
1787986368 23.33° C 60% 991.3 hPa - - - -
1787982775 22.78° C 61% 991.1 hPa - - - -
1787979168 23.33° C 60% 990.9 hPa - - - -
1787975574 22.78° C 62% 990.7 hPa - - - -
1787971967 22.78° C 62% 990.6 hPa - - - -
1787968367 23.33° C 62% 989.6 hPa - - - -

* Rain since midnight (hover to see other rain measurements)
** Current wind speed in m/s (hover to see current wind gust speed)